Time;durP1;ratioP1;P1;durP2;ratioP2;P2;SDS_P1;SDS_P2;PMS_P1;PMS_P2;Temp;Humidity;BMP_temperature;BMP_pressure;BME280_temperature;BME280_humidity;BME280_pressure;Samples;Min_cycle;Max_cycle;Signal;HPM_P1;HPM_P2
2022/03/09 03:51:52;;;;;;;19.83;7.78;;;-7.90;1.00;;;-7.52;86.98;99790.28;5023871;27;119102;-86
2022/03/09 03:58:30;;;;;;;21.42;9.00;;;-8.10;1.00;;;-7.63;87.93;99794.22;5020365;27;129384;-88
2022/03/09 04:02:09;;;;;;;15.40;8.10;;;-8.10;1.00;;;-7.66;89.04;99797.22;5036009;27;125168;-88
2022/03/09 04:05:09;;;;;;;20.10;9.10;;;-8.10;1.00;;;-7.63;89.01;99800.31;5014476;27;121256;-88
2022/03/09 04:08:03;;;;;;;21.38;10.13;;;-8.10;1.00;;;-7.64;89.42;99793.38;5037605;27;129608;-88
2022/03/09 04:11:00;;;;;;;20.45;9.00;;;-8.10;1.00;;;-7.62;88.83;99801.94;5017826;27;128390;-88
2022/03/09 04:16:54;;;;;;;16.63;8.55;;;-8.20;1.00;;;-7.73;89.45;99796.31;5021437;27;117368;-87
2022/03/09 04:19:50;;;;;;;17.20;8.27;;;-8.20;1.00;;;-7.82;90.47;99792.97;5039322;27;129881;-87
2022/03/09 04:22:29;;;;;;;22.48;8.77;;;-8.10;1.00;;;-7.77;91.16;99798.53;5032500;27;128968;-86
2022/03/09 04:25:10;;;;;;;16.75;8.35;;;-8.10;1.00;;;-7.85;91.59;99795.97;5048162;27;118396;-85
2022/03/09 04:28:15;;;;;;;18.08;9.32;;;-8.00;1.00;;;-7.76;91.64;99802.78;5042944;27;118501;-86
2022/03/09 04:30:56;;;;;;;20.85;8.30;;;-7.90;1.00;;;-7.74;91.11;99802.59;5034840;27;129469;-87
2022/03/09 04:33:27;;;;;;;18.10;9.13;;;-7.90;1.00;;;-7.65;90.43;99802.31;5049730;27;129403;-85
2022/03/09 04:36:03;;;;;;;20.08;8.65;;;-8.00;1.00;;;-7.60;90.20;99801.78;5040755;27;119500;-87
2022/03/09 04:38:37;;;;;;;;;;;-8.10;1.00;;;-7.68;89.69;99797.41;5050936;27;117485;-87
2022/03/09 04:41:26;;;;;;;18.55;9.15;;;-8.20;1.00;;;-7.73;90.15;99804.22;5037425;27;128234;-86
2022/03/09 04:44:09;;;;;;;22.70;9.07;;;-8.10;1.00;;;-7.71;90.38;99802.22;5037712;27;128798;-89
2022/03/09 04:46:47;;;;;;;20.05;9.70;;;-8.10;1.00;;;-7.66;89.87;99805.94;5018389;27;119545;-88
2022/03/09 04:49:30;;;;;;;17.38;9.45;;;-8.10;1.00;;;-7.63;89.85;99805.56;5034261;27;118756;-87
2022/03/09 04:52:02;;;;;;;16.67;9.18;;;-8.10;1.00;;;-7.59;89.95;99817.41;5017741;27;129475;-88
2022/03/09 04:54:38;;;;;;;22.02;9.77;;;-8.10;1.00;;;-7.60;89.87;99815.75;5031507;27;128879;-88
2022/03/09 04:57:25;;;;;;;21.35;10.07;;;-8.00;1.00;;;-7.63;91.07;99820.59;5030434;27;121651;-88
2022/03/09 05:00:00;;;;;;;20.17;9.17;;;-7.90;1.00;;;-7.75;91.49;99812.31;5033276;27;121048;-88
2022/03/09 05:02:30;;;;;;;24.80;9.15;;;-7.70;1.00;;;-7.80;92.13;99817.34;5017271;27;129677;-88
2022/03/09 05:05:00;;;;;;;16.10;8.07;;;-7.70;1.00;;;-7.85;91.86;99817.06;4999618;27;127464;-88
2022/03/09 05:07:30;;;;;;;15.88;7.47;;;-7.60;1.00;;;-7.78;91.50;99818.78;4999031;27;119472;-87
2022/03/09 05:10:02;;;;;;;17.98;7.55;;;-7.50;1.00;;;-7.70;90.89;99812.59;5014938;27;119605;-86
2022/03/09 05:12:33;;;;;;;14.95;8.27;;;-7.40;1.00;;;-7.51;89.98;99818.28;5014896;27;129733;-87
2022/03/09 05:15:02;;;;;;;12.05;6.53;;;-7.40;1.00;;;-7.50;89.65;99825.19;5015182;27;128056;-88
2022/03/09 05:17:45;;;;;;;13.48;6.88;;;-7.30;1.00;;;-7.39;88.56;99821.25;5034359;27;118646;-87
2022/03/09 05:20:21;;;;;;;15.07;6.85;;;-7.20;1.00;;;-7.14;87.52;99825.16;5000384;28;117921;-88
2022/03/09 05:22:58;;;;;;;16.45;7.65;;;-7.20;1.00;;;-7.05;87.06;99833.78;5029268;28;128462;-87
2022/03/09 05:25:30;;;;;;;13.57;6.72;;;-7.10;1.00;;;-7.12;86.49;99839.00;5023918;27;128082;-89
2022/03/09 05:28:03;;;;;;;14.45;6.80;;;-7.00;1.00;;;-6.93;86.41;99836.75;5027872;27;118129;-88
2022/03/09 05:30:33;;;;;;;15.90;6.72;;;-7.00;1.00;;;-6.79;85.21;99837.66;5026581;27;117764;-89
2022/03/09 05:33:02;;;;;;;14.90;6.85;;;-6.90;1.00;;;-6.77;84.13;99839.09;5011604;27;128479;-87
2022/03/09 05:35:30;;;;;;;11.93;5.93;;;-6.80;1.00;;;-6.73;84.04;99843.00;5027983;27;127405;-88
2022/03/09 05:37:59;;;;;;;12.73;6.20;;;-6.70;1.00;;;-6.45;83.04;99844.03;5028940;27;118256;-86
2022/03/09 05:40:27;;;;;;;13.48;6.25;;;-6.60;1.00;;;-6.30;82.34;99847.41;5046378;27;118786;-90
2022/03/09 05:42:56;;;;;;;13.23;5.93;;;-6.50;1.00;;;-6.20;81.30;99841.75;5026468;27;128916;-88
2022/03/09 05:45:26;;;;;;;12.32;6.78;;;-6.50;1.00;;;-6.08;80.83;99844.69;5043826;27;128363;-87
2022/03/09 05:47:55;;;;;;;13.38;6.30;;;-6.40;1.00;;;-6.24;80.48;99851.91;5042391;27;121368;-86
2022/03/09 05:50:23;;;;;;;12.23;6.00;;;-6.40;1.00;;;-6.18;80.44;99855.63;5043516;27;120137;-87
2022/03/09 05:52:52;;;;;;;13.75;6.45;;;-6.30;1.00;;;-6.27;80.24;99854.94;5060077;27;129820;-86
2022/03/09 05:55:21;;;;;;;15.30;6.70;;;-6.20;1.00;;;-5.91;79.53;99856.56;5027358;27;127776;-86
2022/03/09 05:57:50;;;;;;;14.15;6.20;;;-6.10;1.00;;;-5.86;78.70;99848.03;5024857;27;118113;-86
2022/03/09 06:00:20;;;;;;;17.25;6.20;;;-6.00;1.00;;;-5.64;77.34;99856.69;5044962;27;117597;-88
2022/03/09 06:02:51;;;;;;;12.75;6.72;;;-5.90;1.00;;;-5.63;76.83;99863.63;5028714;27;128011;-86
2022/03/09 06:05:20;;;;;;;14.55;6.45;;;-5.80;1.00;;;-5.42;75.06;99871.44;5027119;27;127498;-88
2022/03/09 06:07:49;;;;;;;13.40;6.10;;;-5.70;1.00;;;-5.22;73.72;99872.53;5027324;27;117615;-88
2022/03/09 06:10:18;;;;;;;16.33;6.22;;;-5.60;1.00;;;-5.28;73.62;99871.50;5027619;27;117665;-88
2022/03/09 06:12:46;;;;;;;13.20;7.50;;;-5.50;1.00;;;-5.23;73.67;99869.06;5019355;27;129248;-87
2022/03/09 06:15:15;;;;;;;13.23;6.28;;;-5.40;1.00;;;-5.13;72.99;99872.13;5013251;27;129102;-86
2022/03/09 06:17:48;;;;;;;14.70;6.25;;;-5.40;1.00;;;-5.13;72.12;99874.78;5012142;27;118901;-86
2022/03/09 06:20:20;;;;;;;12.80;5.97;;;-5.30;1.00;;;-5.22;71.76;99875.97;5014025;27;117870;-86
2022/03/09 06:22:49;;;;;;;15.02;6.10;;;-5.20;1.00;;;-4.87;70.42;99878.53;5018375;27;129066;-87
2022/03/09 06:25:19;;;;;;;11.73;5.80;;;-5.10;1.00;;;-4.94;70.44;99881.16;5035219;27;128829;-86
2022/03/09 06:27:50;;;;;;;21.98;5.82;;;-5.10;1.00;;;-4.87;70.60;99889.13;5018622;27;118686;-86
2022/03/09 06:30:19;;;;;;;18.23;5.97;;;-5.00;1.00;;;-4.59;69.73;99890.78;5019126;27;118624;-87
2022/03/09 06:32:48;;;;;;;16.77;7.18;;;-4.90;1.00;;;-4.15;68.29;99898.13;5016347;27;129286;-87
2022/03/09 06:35:19;;;;;;;20.30;8.90;;;-4.70;1.00;;;-4.30;66.85;99902.00;5017527;27;128130;-85
2022/03/09 06:37:48;;;;;;;11.02;7.18;;;-4.60;1.00;;;-4.12;67.10;99896.91;5017779;27;120814;-86
2022/03/09 06:40:18;;;;;;;15.40;6.40;;;-4.50;1.00;;;-3.67;65.63;99909.50;5018467;27;121172;-87
2022/03/09 06:42:47;;;;;;;12.00;6.15;;;-4.40;1.00;;;-3.76;64.11;99910.72;5018683;27;128807;-86
2022/03/09 06:45:16;;;;;;;24.98;11.82;;;-4.30;1.00;;;-3.59;64.38;99906.59;5019118;27;129504;-85
2022/03/09 06:47:46;;;;;;;14.60;7.05;;;-4.20;1.00;;;-3.42;62.62;99916.78;5018624;27;118957;-86
2022/03/09 06:50:23;;;;;;;16.40;6.93;;;-4.10;1.00;;;-3.42;61.16;99922.88;5036384;27;119262;-86
2022/03/09 06:52:56;;;;;;;13.27;5.78;;;-4.00;1.00;;;-3.57;62.11;99914.34;4985877;27;129547;-86
2022/03/09 06:55:27;;;;;;;12.90;5.65;;;-3.90;1.00;;;-3.30;62.37;99915.09;5017528;27;128678;-86
2022/03/09 06:58:05;;;;;;;15.95;7.25;;;-3.80;1.00;;;-2.95;61.23;99923.50;5017803;27;118506;-85
2022/03/09 07:00:36;;;;;;;12.35;5.32;;;-3.70;1.00;;;-3.13;59.83;99920.72;4968197;27;118013;-89
2022/03/09 07:03:05;;;;;;;14.90;5.75;;;-3.70;1.00;;;-3.23;59.24;99920.38;4998147;27;128745;-87
2022/03/09 07:05:34;;;;;;;14.27;5.30;;;-3.60;1.00;;;-3.23;58.91;99925.69;4999122;27;128631;-87
2022/03/09 07:08:06;;;;;;;14.55;5.25;;;-3.60;1.00;;;-2.96;59.41;99921.88;5015731;27;118938;-87
2022/03/09 07:10:35;;;;;;;11.48;5.45;;;-3.50;1.00;;;-2.88;59.47;99928.78;5013665;27;118057;-86
2022/03/09 07:13:05;;;;;;;12.40;4.70;;;-3.40;1.00;;;-2.60;57.48;99931.09;4998851;27;129712;-87
2022/03/09 07:15:34;;;;;;;14.32;7.55;;;-3.30;1.00;;;-2.78;57.22;99933.63;5032332;27;128623;-86
2022/03/09 07:18:03;;;;;;;12.30;6.63;;;-3.30;1.00;;;-2.43;56.59;99935.88;5015522;27;119338;-86
2022/03/09 07:20:36;;;;;;;10.43;5.20;;;-3.20;1.00;;;-2.77;56.20;99932.63;4999396;27;118795;-85
2022/03/09 07:23:09;;;;;;;13.82;5.80;;;-3.20;1.00;;;-2.78;57.05;99930.97;4982160;27;129063;-87
2022/03/09 07:25:38;;;;;;;10.68;5.50;;;-3.20;1.00;;;-2.79;57.92;99924.03;4983260;27;129284;-88
2022/03/09 07:28:08;;;;;;;12.63;6.03;;;-3.30;1.00;;;-2.68;56.97;99928.69;5014472;27;121172;-84
2022/03/09 07:30:38;;;;;;;10.52;5.40;;;-3.20;1.00;;;-2.24;57.03;99929.59;5015730;27;119950;-86
2022/03/09 07:33:07;;;;;;;9.43;4.82;;;-2.90;1.00;;;-2.22;56.27;99932.03;5014238;27;129627;-85
2022/03/09 07:35:35;;;;;;;11.60;4.55;;;-2.90;1.00;;;-2.48;56.05;99927.72;5014229;27;127867;-86
2022/03/09 07:38:10;;;;;;;12.52;4.65;;;-2.90;1.00;;;-2.74;56.07;99934.84;4981996;27;119035;-86
2022/03/09 07:40:39;;;;;;;9.02;4.90;;;-2.90;1.00;;;-2.77;56.30;99935.28;4981472;27;120617;-87
2022/03/09 07:43:08;;;;;;;17.80;6.18;;;-3.00;1.00;;;-2.73;56.05;99931.97;4997852;27;129272;-87
2022/03/09 07:45:38;;;;;;;14.32;6.38;;;-2.90;1.00;;;-2.51;55.71;99936.13;5032059;27;128825;-87
2022/03/09 07:48:09;;;;;;;12.43;4.90;;;-2.80;1.00;;;-2.55;55.90;99939.22;5015760;27;120405;-85
2022/03/09 07:50:38;;;;;;;11.18;5.13;;;-2.80;1.00;;;-2.09;54.95;99942.56;4998640;27;119358;-87
2022/03/09 07:53:42;;;;;;;13.50;5.60;;;-2.60;1.00;;;-1.29;50.81;99944.47;5000257;27;129656;-87
2022/03/09 07:56:14;;;;;;;9.63;3.60;;;-2.20;1.00;;;-1.36;50.20;99940.25;5013844;27;129420;-88
2022/03/09 07:58:43;;;;;;;9.50;4.28;;;-2.10;1.00;;;-1.91;52.11;99944.47;5028901;27;119158;-86
2022/03/09 08:01:13;;;;;;;12.40;4.18;;;-2.30;1.00;;;-1.32;52.13;99944.09;5034954;27;118641;-85
2022/03/09 08:03:42;;;;;;;12.07;5.53;;;-2.10;1.00;;;-1.40;51.61;99947.03;5001733;27;129157;-86
2022/03/09 08:06:11;;;;;;;9.23;3.58;;;-2.20;1.00;;;-1.05;50.85;99947.25;5002713;27;128808;-85
2022/03/09 08:08:50;;;;;;;6.88;3.40;;;-1.90;1.00;;;-0.97;49.88;99938.13;5036140;27;119232;-86
2022/03/09 08:11:19;;;;;;;11.90;5.70;;;-1.70;1.00;;;-1.38;50.73;99948.44;5015910;27;118682;-86
2022/03/09 08:13:51;;;;;;;11.82;5.13;;;-2.00;1.00;;;-2.15;52.09;99953.25;4997125;27;129196;-87
2022/03/09 08:16:20;;;;;;;14.75;5.43;;;-2.40;1.00;;;-2.44;53.95;99958.97;5016305;27;129031;-87
2022/03/09 08:26:07;;;;;;;14.93;5.95;;;-2.60;1.00;;;-2.41;53.40;99960.41;5034750;27;129897;-86
2022/03/09 08:28:37;;;;;;;6.75;3.47;;;-2.50;1.00;;;-2.11;53.62;99954.47;5017399;27;128896;-86
2022/03/09 08:31:06;;;;;;;7.85;4.13;;;-2.40;1.00;;;-2.35;53.59;99960.34;5015728;27;118890;-90
2022/03/09 08:33:35;;;;;;;8.07;4.60;;;-2.50;1.00;;;-2.22;53.56;99959.44;5023953;27;118527;-87
2022/03/09 08:36:04;;;;;;;10.20;5.18;;;-2.50;1.00;;;-1.92;52.75;99953.47;5025619;27;128454;-87
2022/03/09 08:38:33;;;;;;;9.15;3.75;;;-2.30;1.00;;;-1.07;51.50;99953.84;5023580;27;128792;-86
2022/03/09 08:41:02;;;;;;;8.30;4.90;;;-1.90;1.00;;;-1.22;51.16;99957.69;5005460;27;117761;-86
2022/03/09 08:43:33;;;;;;;7.80;3.30;;;-1.80;1.00;;;-1.35;50.11;99958.66;5022141;27;117295;-86
2022/03/09 08:46:02;;;;;;;7.45;3.65;;;-1.60;1.00;;;-0.77;49.83;99952.00;5024307;27;129210;-85
2022/03/09 08:48:32;;;;;;;5.95;3.40;;;-1.40;1.00;;;-0.24;48.16;99960.31;5057594;27;129004;-84
2022/03/09 08:53:44;;;;;;;10.57;3.20;;;-1.10;1.00;;;0.32;44.82;99977.66;5040750;27;117837;-84
2022/03/09 08:56:12;;;;;;;6.20;3.28;;;-0.70;1.00;;;0.83;44.76;99971.81;5041250;27;128117;-84
2022/03/09 08:58:43;;;;;;;9.30;3.28;;;-0.40;1.00;;;-0.60;46.77;99970.06;5041770;27;127796;-84
2022/03/09 09:01:12;;;;;;;6.47;3.00;;;-1.30;1.00;;;-0.87;47.44;99973.06;5040796;27;118384;-84
2022/03/09 09:03:41;;;;;;;5.32;3.13;;;-1.50;1.00;;;-1.47;47.93;99969.22;5037909;27;118494;-85
2022/03/09 09:06:11;;;;;;;5.50;2.95;;;-1.70;1.00;;;-1.35;48.67;99974.63;5042072;27;104412;-86
2022/03/09 09:08:39;;;;;;;8.40;3.35;;;-1.80;1.00;;;-0.59;47.74;99974.34;5026048;27;128571;-83
2022/03/09 09:11:08;;;;;;;7.10;3.17;;;-1.20;1.00;;;-1.00;47.30;99973.22;5042940;27;120961;-84
2022/03/09 09:13:36;;;;;;;4.60;2.55;;;-1.30;1.00;;;-0.38;45.77;99978.34;5044690;27;120811;-83
2022/03/09 09:16:07;;;;;;;5.10;2.80;;;-1.20;1.00;;;0.31;44.95;99970.72;5061992;27;128913;-83
2022/03/09 09:18:35;;;;;;;7.70;2.80;;;-0.90;1.00;;;-0.34;45.31;99978.69;5052973;27;127627;-84
2022/03/09 09:21:04;;;;;;;4.57;2.47;;;-1.10;1.00;;;-0.30;44.96;99979.88;5024591;27;117370;-84
2022/03/09 09:23:33;;;;;;;6.35;3.88;;;-1.10;1.00;;;-0.54;45.78;99979.81;5042310;27;118450;-85
2022/03/09 09:26:02;;;;;;;8.35;3.10;;;-1.20;1.00;;;-0.89;46.23;99983.13;5023755;27;128080;-82
2022/03/09 09:28:31;;;;;;;5.20;2.70;;;-1.40;1.00;;;-0.69;46.25;99987.41;5044842;27;128325;-83
2022/03/09 09:30:59;;;;;;;6.45;2.90;;;-1.30;1.00;;;0.38;45.15;99981.25;5023472;27;119461;-84
2022/03/09 09:33:29;;;;;;;7.00;3.40;;;-0.80;1.00;;;-0.52;44.75;99977.72;5021196;27;118957;-83
2022/03/09 09:35:57;;;;;;;6.68;3.55;;;-1.10;1.00;;;0.10;45.46;99965.94;5022347;27;128963;-85
2022/03/09 09:38:27;;;;;;;9.02;3.38;;;-0.90;1.00;;;0.60;44.28;99962.78;5023952;27;128922;-84
2022/03/09 09:40:56;;;;;;;6.85;2.90;;;-0.60;1.00;;;0.27;44.96;99969.53;5023902;27;119087;-84
2022/03/09 09:43:25;;;;;;;5.22;3.00;;;-0.80;1.00;;;1.08;44.05;99969.66;5024489;27;117613;-82
2022/03/09 09:46:00;;;;;;;5.80;3.08;;;-0.50;1.00;;;1.46;41.34;99970.09;5024696;27;128385;-84
2022/03/09 09:48:30;;;;;;;6.05;2.95;;;-0.20;1.00;;;0.31;42.94;99976.03;5023883;27;128409;-81
2022/03/09 09:51:00;;;;;;;5.78;3.10;;;-0.60;1.00;;;-0.43;45.10;99965.69;5024843;27;119148;-83
2022/03/09 09:53:33;;;;;;;7.22;2.78;;;-1.10;1.00;;;-0.16;44.58;99970.63;5024849;27;118947;-83
2022/03/09 09:56:02;;;;;;;6.25;3.28;;;-0.80;1.00;;;-0.10;43.85;99964.38;5023813;27;129194;-82
2022/03/09 09:58:32;;;;;;;10.57;3.42;;;-0.80;1.00;;;-0.19;44.32;99960.41;5024141;27;127335;-83
2022/03/09 10:01:00;;;;;;;6.13;3.03;;;-0.80;1.00;;;0.19;44.29;99969.88;5023212;27;121457;-83
2022/03/09 10:03:30;;;;;;;5.47;3.10;;;-0.70;1.00;;;-0.69;45.00;99971.41;5024174;27;121344;-84
2022/03/09 10:05:59;;;;;;;6.88;3.35;;;-1.00;1.00;;;0.25;44.97;99968.97;5040691;27;128016;-83
2022/03/09 10:08:27;;;;;;;6.18;3.17;;;-0.70;1.00;;;0.22;44.29;99969.44;5023894;27;128413;-82
2022/03/09 10:10:59;;;;;;;5.40;3.15;;;-0.60;1.00;;;0.22;43.62;99977.44;5022428;27;118859;-83
2022/03/09 10:13:30;;;;;;;5.95;3.47;;;-0.60;1.00;;;-0.88;45.96;99975.97;5036243;27;117847;-85
2022/03/09 10:16:15;;;;;;;10.57;4.50;;;-1.10;1.00;;;-0.60;46.20;99965.53;5023777;27;128981;-84
2022/03/09 10:18:53;;;;;;;4.75;2.70;;;-1.00;1.00;;;-0.82;46.22;99977.72;5041153;27;130136;-84
2022/03/09 10:21:25;;;;;;;7.60;3.28;;;-1.10;1.00;;;-0.55;45.86;99978.19;5024123;27;118842;-83
2022/03/09 10:24:01;;;;;;;7.32;3.50;;;-0.90;1.00;;;-0.64;45.09;99982.19;5024210;27;117773;-84
2022/03/09 10:26:46;;;;;;;7.15;3.00;;;-1.00;1.00;;;-0.43;45.69;99971.03;5039473;27;129512;-84
2022/03/09 10:29:18;;;;;;;6.68;3.38;;;-0.90;1.00;;;-0.04;44.67;99968.81;5057258;27;127604;-84
2022/03/09 10:31:48;;;;;;;9.65;3.80;;;-0.60;1.00;;;-0.20;45.11;99966.81;5023667;27;118960;-83
2022/03/09 10:34:24;;;;;;;8.35;3.33;;;-0.60;1.00;;;-0.42;45.86;99972.66;5037897;27;119970;-87
2022/03/09 10:36:57;;;;;;;6.35;3.08;;;-0.70;1.00;;;-0.11;45.47;99968.13;5007185;27;129419;-85
2022/03/09 10:39:29;;;;;;;5.75;3.15;;;-0.70;1.00;;;-0.42;46.69;99975.34;5034915;27;128535;-84
2022/03/09 10:41:59;;;;;;;6.57;3.00;;;-0.80;1.00;;;-0.80;46.37;99992.44;5030153;27;117201;-85
2022/03/09 10:44:44;;;;;;;4.57;2.35;;;-0.90;1.00;;;-0.57;45.28;99996.25;5043756;27;118241;-86
2022/03/09 10:47:31;;;;;;;4.32;2.40;;;-0.90;1.00;;;-0.58;44.86;99994.63;5040848;27;128845;-85
2022/03/09 10:50:28;;;;;;;5.78;2.60;;;-1.00;1.00;;;-0.60;46.08;99997.53;5029647;27;128125;-83
2022/03/09 10:53:19;;;;;;;5.13;2.72;;;-0.80;1.00;;;-0.63;45.25;99991.84;5016272;27;120178;-90
2022/03/09 10:56:10;;;;;;;5.78;2.80;;;-0.70;1.00;;;0.11;44.08;99994.22;5050471;27;120195;-88
2022/03/09 11:01:40;;;;;;;5.88;2.97;;;-0.20;1.00;;;0.48;43.42;99991.34;5035289;27;127402;-89
2022/03/09 11:04:20;;;;;;;5.35;2.83;;;-0.20;1.00;;;0.08;44.08;99986.69;5003275;27;117988;-88
2022/03/09 11:07:07;;;;;;;8.20;4.70;;;-0.30;1.00;;;-0.23;44.33;99976.09;5039173;27;118883;-89
2022/03/09 13:30:43;;;;;;;6.32;3.47;;;0.00;1.00;;;-0.13;41.78;100014.72;4781223;28;120076;-93
2022/03/09 13:48:27;;;;;;;4.50;2.22;;;0.00;1.00;;;-0.19;42.40;100029.78;4882693;28;129619;-93
2022/03/09 14:03:13;;;;;;;12.70;7.63;;;-0.40;1.00;;;-0.61;43.30;100043.91;4882616;28;128784;-92
2022/03/09 14:36:36;;;;;;;7.28;2.60;;;-0.40;1.00;;;-0.39;43.08;100054.91;4856772;29;129000;-93
2022/03/09 14:43:32;;;;;;;5.15;2.58;;;-0.40;1.00;;;-0.69;42.23;100062.84;4844808;29;119140;-93
2022/03/09 14:46:21;;;;;;;6.40;2.72;;;-0.60;1.00;;;-0.91;42.94;100065.94;4857529;28;129424;-91
2022/03/09 14:49:11;;;;;;;5.80;2.70;;;-0.60;1.00;;;-0.60;42.34;100066.84;4829883;29;129103;-93
2022/03/09 14:52:32;;;;;;;5.50;2.40;;;-0.50;1.00;;;-1.03;43.31;100077.56;4862157;28;119934;-92
2022/03/09 14:55:08;;;;;;;6.80;2.80;;;-0.70;1.00;;;-0.97;43.73;100074.03;4843082;29;118014;-93
2022/03/09 14:57:48;;;;;;;;;;;-0.70;1.00;;;-0.79;43.20;100084.69;4827076;29;128239;-93
2022/03/09 15:00:23;;;;;;;5.95;2.47;;;-0.60;1.00;;;-0.73;43.03;100086.47;4846524;29;128437;-95
2022/03/09 15:02:59;;;;;;;6.55;3.20;;;-0.60;1.00;;;-0.89;43.25;100075.59;4845327;29;119841;-91
2022/03/09 15:08:19;;;;;;;4.78;2.45;;;-0.70;1.00;;;-0.69;43.56;100094.03;4823965;29;128225;-92
2022/03/09 15:10:52;;;;;;;5.53;2.70;;;-0.70;1.00;;;-0.54;43.60;100094.47;4828168;29;128590;-92
2022/03/09 15:13:21;;;;;;;7.95;2.90;;;-0.60;1.00;;;-0.60;43.67;100103.34;4848691;29;119397;-91
2022/03/09 15:15:53;;;;;;;6.47;2.88;;;-0.50;1.00;;;-0.73;44.67;100099.81;4848015;29;118749;-93
2022/03/09 15:19:02;;;;;;;7.57;2.88;;;-0.60;1.00;;;-0.88;43.31;100106.53;4830059;29;129140;-93
2022/03/09 15:21:36;;;;;;;5.72;2.42;;;-0.90;1.00;;;-1.56;45.25;100111.63;4825250;29;127749;-92
2022/03/09 15:24:13;;;;;;;5.55;2.67;;;-1.10;1.00;;;-1.41;44.87;100121.97;4840418;29;121645;-93
2022/03/09 15:26:42;;;;;;;5.80;2.35;;;-1.10;1.00;;;-1.18;44.59;100117.91;4828525;29;119651;-91
2022/03/09 15:29:14;;;;;;;5.25;2.83;;;-1.20;1.00;;;-0.94;44.08;100124.22;4825624;29;129384;-92
2022/03/09 15:31:47;;;;;;;5.28;2.53;;;-1.10;1.00;;;-0.82;43.68;100133.13;4850896;28;129530;-93
2022/03/09 15:34:31;;;;;;;6.57;3.08;;;-0.80;1.00;;;-0.64;43.98;100135.00;4881862;28;118386;-92
2022/03/09 15:37:06;;;;;;;6.20;2.95;;;-0.70;1.00;;;-0.21;42.92;100143.91;4847108;28;117454;-94
2022/03/09 15:39:36;;;;;;;5.78;2.60;;;-0.70;1.00;;;0.78;41.02;100135.53;4863026;28;128898;-92
2022/03/09 15:42:09;;;;;;;7.72;2.75;;;-0.60;1.00;;;0.68;40.69;100146.75;4876886;28;128546;-90
2022/03/09 15:44:40;;;;;;;4.78;2.58;;;-0.70;1.00;;;0.63;40.95;100149.31;4860079;28;118056;-91
2022/03/09 15:47:11;;;;;;;5.95;3.08;;;-0.70;1.00;;;0.27;41.43;100159.09;4850101;28;117786;-92
2022/03/09 15:49:53;;;;;;;6.57;2.60;;;-0.80;1.00;;;-0.73;41.85;100163.78;4863225;28;128098;-93
2022/03/09 15:52:22;;;;;;;6.40;3.10;;;-1.10;1.00;;;-1.04;42.56;100167.34;4872251;28;128272;-92
2022/03/09 15:54:56;;;;;;;5.75;2.72;;;-1.30;1.00;;;-1.29;42.86;100170.03;4859312;28;117967;-93
2022/03/09 15:57:27;;;;;;;5.87;3.00;;;-1.50;1.00;;;-1.97;44.15;100171.47;4872877;28;117801;-90
2022/03/09 15:59:56;;;;;;;7.55;2.70;;;-1.80;1.00;;;-2.44;45.46;100173.50;4856769;28;128902;-93
2022/03/09 16:02:35;;;;;;;5.75;2.65;;;-2.00;1.00;;;-2.73;46.24;100191.53;4858807;28;128700;-93
2022/03/09 16:05:21;;;;;;;6.40;2.33;;;-2.20;1.00;;;-2.92;46.77;100188.69;4848009;28;119876;-90
2022/03/09 16:07:49;;;;;;;6.80;2.40;;;-2.30;1.00;;;-2.92;47.43;100190.53;4857937;28;117308;-89
2022/03/09 16:10:20;;;;;;;5.80;2.40;;;-2.40;1.00;;;-2.96;47.03;100199.94;4871182;28;128544;-90
2022/03/09 16:12:50;;;;;;;5.38;2.38;;;-2.50;1.00;;;-3.00;46.64;100199.53;4873388;28;128928;-90
2022/03/09 16:15:18;;;;;;;4.65;2.28;;;-2.60;1.00;;;-3.18;47.03;100207.28;4855538;28;121974;-91
2022/03/09 16:17:50;;;;;;;4.57;2.45;;;-2.60;1.00;;;-3.29;47.21;100214.84;4872611;28;121081;-92
2022/03/09 16:20:21;;;;;;;6.45;3.00;;;-2.60;1.00;;;-3.42;46.78;100216.69;4871969;28;129294;-91
2022/03/09 16:22:50;;;;;;;6.20;2.78;;;-2.60;1.00;;;-3.40;47.41;100227.91;4855615;28;127501;-90
2022/03/09 16:25:20;;;;;;;6.50;2.92;;;-2.70;1.00;;;-3.43;47.19;100223.81;4840119;28;119038;-92
2022/03/09 16:27:54;;;;;;;7.03;2.97;;;-2.80;1.00;;;-3.52;47.15;100236.47;4854315;28;119384;-91
2022/03/09 16:30:26;;;;;;;6.10;3.03;;;-2.80;1.00;;;-3.57;46.61;100235.41;4853549;28;129416;-90
2022/03/09 16:33:00;;;;;;;7.35;3.30;;;-3.00;1.00;;;-3.49;47.40;100244.00;4841947;28;129365;-92
2022/03/09 16:35:50;;;;;;;3.88;2.38;;;-3.00;1.00;;;-3.67;47.32;100243.75;4874630;28;118673;-90
2022/03/09 16:38:23;;;;;;;5.13;1.88;;;-3.00;1.00;;;-3.67;46.88;100251.72;4889599;28;117741;-90
2022/03/09 16:40:53;;;;;;;7.05;2.75;;;-3.00;1.00;;;-3.82;47.01;100254.50;4871624;28;130005;-89
2022/03/09 16:43:25;;;;;;;5.55;2.53;;;-3.00;1.00;;;-3.75;47.27;100259.88;4872912;28;128969;-90
2022/03/09 16:45:56;;;;;;;4.55;2.28;;;-3.00;1.00;;;-3.88;47.35;100269.41;4858346;28;118703;-88
2022/03/09 16:48:41;;;;;;;5.72;2.55;;;-3.10;1.00;;;-3.90;47.51;100270.59;4861001;28;119159;-90
2022/03/09 16:51:21;;;;;;;5.07;2.50;;;-3.10;1.00;;;-3.89;47.42;100267.75;4892896;28;129410;-88
2022/03/09 16:53:56;;;;;;;7.63;3.83;;;-3.20;1.00;;;-4.00;47.61;100276.28;4877162;28;129050;-88
2022/03/09 16:56:33;;;;;;;5.93;2.22;;;-3.20;1.00;;;-4.03;47.80;100268.72;4873703;28;119286;-89
2022/03/09 16:59:02;;;;;;;6.88;2.53;;;-3.20;1.00;;;-4.01;47.97;100278.09;4873971;28;119099;-88
2022/03/09 17:01:32;;;;;;;6.70;2.47;;;-3.30;1.00;;;-4.03;48.04;100284.63;4856950;28;129980;-89
2022/03/09 17:04:04;;;;;;;5.97;2.67;;;-3.30;1.00;;;-4.10;48.31;100292.53;4857495;28;128678;-89
2022/03/09 17:06:38;;;;;;;5.15;2.10;;;-3.40;1.00;;;-4.03;48.44;100297.88;4840217;28;120707;-88
2022/03/09 17:09:12;;;;;;;4.70;2.30;;;-3.40;1.00;;;-4.15;47.84;100308.22;4874337;28;121750;-88
2022/03/09 17:11:42;;;;;;;6.07;3.00;;;-3.40;1.00;;;-4.26;48.77;100309.56;4856832;28;129685;-87
2022/03/09 17:14:14;;;;;;;6.38;2.67;;;-3.40;1.00;;;-4.22;48.75;100310.00;4873378;28;129725;-87
2022/03/09 17:16:44;;;;;;;6.53;2.60;;;-3.40;1.00;;;-4.18;48.57;100322.66;4827184;28;118622;-87
2022/03/09 17:19:22;;;;;;;10.60;2.78;;;-3.60;1.00;;;-4.26;49.52;100324.66;4888470;28;118467;-88
2022/03/09 17:21:54;;;;;;;6.53;2.88;;;-3.70;1.00;;;-4.21;49.04;100327.53;4855198;28;129068;-88
2022/03/09 17:24:25;;;;;;;5.32;2.95;;;-3.70;1.00;;;-4.36;49.47;100336.41;4865837;28;128956;-88
2022/03/09 17:26:55;;;;;;;6.68;2.65;;;-3.70;1.00;;;-4.43;49.15;100332.88;4850331;28;118701;-87
2022/03/09 17:29:23;;;;;;;7.10;3.17;;;-3.70;1.00;;;-4.46;49.67;100335.13;4846619;28;117664;-86
2022/03/09 17:31:53;;;;;;;8.30;3.38;;;-3.80;1.00;;;-4.54;49.58;100344.81;4847364;28;129202;-91
2022/03/09 17:34:24;;;;;;;8.60;2.75;;;-3.80;1.00;;;-4.46;49.43;100346.53;4842236;28;129832;-91
2022/03/09 17:37:06;;;;;;;7.28;2.83;;;-3.80;1.00;;;-4.43;49.84;100354.09;4857070;28;119267;-91
2022/03/09 17:39:36;;;;;;;5.32;2.55;;;-3.90;1.00;;;-4.67;49.23;100359.78;4841722;28;118672;-91
2022/03/09 17:42:13;;;;;;;6.00;2.45;;;-3.80;1.00;;;-4.76;49.83;100365.22;4824117;28;128974;-92
2022/03/09 17:44:56;;;;;;;4.53;2.17;;;-3.80;1.00;;;-4.75;49.95;100363.41;4842573;28;129659;-93
2022/03/09 17:48:12;;;;;;;6.38;2.40;;;-3.90;1.00;;;-4.77;49.63;100371.56;4873353;28;120189;-91
2022/03/09 17:50:48;;;;;;;5.32;2.40;;;-3.80;1.00;;;-4.72;50.40;100376.25;4856464;28;118691;-91
2022/03/09 17:53:29;;;;;;;5.07;2.63;;;-3.90;1.00;;;-4.80;49.98;100371.94;4840441;28;128118;-89
2022/03/09 17:56:00;;;;;;;5.85;2.55;;;-4.00;1.00;;;-4.78;49.63;100385.78;4874302;28;127794;-90
2022/03/09 17:58:44;;;;;;;5.57;2.53;;;-4.00;1.00;;;-4.84;49.74;100386.53;4855627;28;121518;-91
2022/03/09 18:01:19;;;;;;;8.45;3.22;;;-4.00;1.00;;;-4.90;50.92;100393.41;4826872;28;120493;-90
2022/03/09 18:03:59;;;;;;;6.93;2.53;;;-4.00;1.00;;;-4.99;50.78;100389.22;4856078;28;129589;-91
2022/03/09 18:06:28;;;;;;;6.68;2.70;;;-4.10;1.00;;;-4.94;50.57;100401.91;4855408;28;129010;-90
2022/03/09 18:09:00;;;;;;;6.00;2.70;;;-4.20;1.00;;;-4.98;51.59;100400.66;4850522;29;117077;-91
2022/03/09 18:11:36;;;;;;;6.63;2.67;;;-4.10;1.00;;;-4.95;51.46;100406.38;4836664;29;119491;-89
2022/03/09 18:14:12;;;;;;;4.13;2.28;;;-4.30;1.00;;;-5.12;52.16;100413.75;4823737;28;128196;-90
2022/03/09 18:17:03;;;;;;;6.07;3.43;;;-4.30;1.00;;;-5.02;51.82;100420.56;4855485;28;128972;-88
2022/03/09 18:19:42;;;;;;;6.68;2.72;;;-4.30;1.00;;;-5.15;52.11;100416.75;4872666;28;120057;-89
2022/03/09 18:22:23;;;;;;;9.48;3.45;;;-4.30;1.00;;;-5.18;52.37;100417.13;4858020;28;119432;-91